Niles, Mississippi
Current Conditions -  °F | °C
As of 4:15 PM on Sunday 25 Jan 2015 (Local Time) from KRNV Reporting Station
Overcast Overcast  
Wind Chill: 57°   Ceiling: 6500
Heat Index: 57°   Visibility: 10mi
Dew Point: 42°   Wind: 15mph
Humidity: 58%   Direction: 280°W
Pressure: 29.79"   Gusts: 24mph
Location:  33.8277°N, 90.9559°W
Report Text: KRNV 252215Z AUTO 28013G21KT 10SM SCT055 OVC065 14/06 A2979 RMK AO2 LTG DSNT NE T01370056
Loading
Personal Weather Stations






























Interactive Weather Map New forecast layout! Learn more

10-Day Weather Forecast

Advertisements
Track Severe Weather on mobile